fbpx

Weather

Glasgow International Airport – EGPF

METAR:

EGPF 141450Z AUTO 25015KT 9999 SCT037 SCT045 15/08 Q1020


TAF:

TAF EGPF 141056Z 1412/1512 26017KT 9999 SCT030 TEMPO 1412/1420 27020G30KT PROB30 TEMPO 1412/1418 8000 -SHRA BECMG 1419/1422 23008KT


Prestwick International Airport – EGPK

METAR:

EGPK 141450Z 25015KT 9999 FEW023 SCT028 BKN048 14/09 Q1021


TAF:

TAF EGPK 141056Z 1412/1512 25017KT 9999 SCT030 TEMPO 1412/1418 26020G30KT PROB30 TEMPO 1412/1418 8000 -SHRA BECMG 1418/1421 27007KT BECMG 1506/1509 20010KT

Call Now ButtonCall us now